sensor_id;sensor_type;location;lat;lon;timestamp;temperature;humidity
17621;DHT22;8929;51.008;6.804;2022-10-23T00:02:21;14.00;99.90
17621;DHT22;8929;51.008;6.804;2022-10-23T00:04:50;14.00;99.90
17621;DHT22;8929;51.008;6.804;2022-10-23T00:07:16;13.90;99.90
17621;DHT22;8929;51.008;6.804;2022-10-23T00:09:41;13.90;99.90
17621;DHT22;8929;51.008;6.804;2022-10-23T00:12:07;13.90;99.90
17621;DHT22;8929;51.008;6.804;2022-10-23T00:14:32;13.90;99.90
17621;DHT22;8929;51.008;6.804;2022-10-23T00:16:58;13.80;99.90
17621;DHT22;8929;51.008;6.804;2022-10-23T00:19:23;13.80;99.90
17621;DHT22;8929;51.008;6.804;2022-10-23T00:21:49;13.80;99.90
17621;DHT22;8929;51.008;6.804;2022-10-23T00:24:14;13.80;99.90
17621;DHT22;8929;51.008;6.804;2022-10-23T00:26:40;13.70;99.90
17621;DHT22;8929;51.008;6.804;2022-10-23T00:29:06;13.70;99.90
17621;DHT22;8929;51.008;6.804;2022-10-23T00:31:32;13.70;99.90
17621;DHT22;8929;51.008;6.804;2022-10-23T00:33:57;13.70;99.90
17621;DHT22;8929;51.008;6.804;2022-10-23T00:36:23;13.70;99.90
17621;DHT22;8929;51.008;6.804;2022-10-23T00:38:49;13.60;99.90
17621;DHT22;8929;51.008;6.804;2022-10-23T00:41:19;13.60;99.90
17621;DHT22;8929;51.008;6.804;2022-10-23T00:44:00;13.60;99.90
17621;DHT22;8929;51.008;6.804;2022-10-23T00:46:26;13.50;99.90
17621;DHT22;8929;51.008;6.804;2022-10-23T00:48:51;13.50;99.90
17621;DHT22;8929;51.008;6.804;2022-10-23T00:51:17;13.40;99.90
17621;DHT22;8929;51.008;6.804;2022-10-23T00:53:42;13.40;99.90
17621;DHT22;8929;51.008;6.804;2022-10-23T00:56:08;13.40;99.90
17621;DHT22;8929;51.008;6.804;2022-10-23T00:58:34;13.40;99.90
17621;DHT22;8929;51.008;6.804;2022-10-23T01:00:59;13.50;99.90
17621;DHT22;8929;51.008;6.804;2022-10-23T01:03:26;13.50;99.90
17621;DHT22;8929;51.008;6.804;2022-10-23T01:05:53;13.50;99.90
17621;DHT22;8929;51.008;6.804;2022-10-23T01:11:03;13.50;99.90
17621;DHT22;8929;51.008;6.804;2022-10-23T01:15:58;13.50;99.90
17621;DHT22;8929;51.008;6.804;2022-10-23T01:18:26;13.50;99.90
17621;DHT22;8929;51.008;6.804;2022-10-23T01:21:03;13.50;99.90
17621;DHT22;8929;51.008;6.804;2022-10-23T01:23:41;13.50;99.90
17621;DHT22;8929;51.008;6.804;2022-10-23T01:31:22;13.40;99.90
17621;DHT22;8929;51.008;6.804;2022-10-23T01:33:51;13.40;99.90
17621;DHT22;8929;51.008;6.804;2022-10-23T01:36:20;13.40;99.90
17621;DHT22;8929;51.008;6.804;2022-10-23T01:41:32;13.40;99.90
17621;DHT22;8929;51.008;6.804;2022-10-23T01:44:01;13.40;99.90
17621;DHT22;8929;51.008;6.804;2022-10-23T01:46:28;13.40;99.90
17621;DHT22;8929;51.008;6.804;2022-10-23T01:48:54;13.40;99.90
17621;DHT22;8929;51.008;6.804;2022-10-23T01:51:21;13.50;99.90
17621;DHT22;8929;51.008;6.804;2022-10-23T01:53:48;13.50;99.90
17621;DHT22;8929;51.008;6.804;2022-10-23T01:56:21;13.60;99.90
17621;DHT22;8929;51.008;6.804;2022-10-23T01:58:48;13.60;99.90
17621;DHT22;8929;51.008;6.804;2022-10-23T02:01:15;13.60;99.90
17621;DHT22;8929;51.008;6.804;2022-10-23T02:03:41;13.60;99.90
17621;DHT22;8929;51.008;6.804;2022-10-23T02:06:07;13.60;99.90
17621;DHT22;8929;51.008;6.804;2022-10-23T02:08:33;13.60;99.90
17621;DHT22;8929;51.008;6.804;2022-10-23T02:11:16;13.60;99.90
17621;DHT22;8929;51.008;6.804;2022-10-23T02:21:05;13.80;99.90
17621;DHT22;8929;51.008;6.804;2022-10-23T02:28:27;13.90;99.90
17621;DHT22;8929;51.008;6.804;2022-10-23T02:30:55;14.00;99.90
17621;DHT22;8929;51.008;6.804;2022-10-23T02:33:21;14.00;99.90
17621;DHT22;8929;51.008;6.804;2022-10-23T02:35:47;14.00;99.90
17621;DHT22;8929;51.008;6.804;2022-10-23T02:38:30;14.00;99.90
17621;DHT22;8929;51.008;6.804;2022-10-23T02:43:49;14.10;99.90
17621;DHT22;8929;51.008;6.804;2022-10-23T02:54:13;14.30;99.90
17621;DHT22;8929;51.008;6.804;2022-10-23T02:56:44;14.30;99.90
17621;DHT22;8929;51.008;6.804;2022-10-23T03:01:47;14.40;99.90
17621;DHT22;8929;51.008;6.804;2022-10-23T03:04:14;14.40;99.90
17621;DHT22;8929;51.008;6.804;2022-10-23T03:06:40;14.40;99.90
17621;DHT22;8929;51.008;6.804;2022-10-23T03:09:07;14.50;99.90
17621;DHT22;8929;51.008;6.804;2022-10-23T03:11:32;14.50;99.90
17621;DHT22;8929;51.008;6.804;2022-10-23T03:13:58;14.60;99.90
17621;DHT22;8929;51.008;6.804;2022-10-23T03:16:24;14.60;99.90
17621;DHT22;8929;51.008;6.804;2022-10-23T03:18:49;14.60;99.90
17621;DHT22;8929;51.008;6.804;2022-10-23T03:21:15;14.60;99.90
17621;DHT22;8929;51.008;6.804;2022-10-23T03:23:40;14.60;99.90
17621;DHT22;8929;51.008;6.804;2022-10-23T03:26:06;14.60;99.90
17621;DHT22;8929;51.008;6.804;2022-10-23T03:28:31;14.60;99.90
17621;DHT22;8929;51.008;6.804;2022-10-23T03:30:57;14.60;99.90
17621;DHT22;8929;51.008;6.804;2022-10-23T03:33:22;14.70;99.90
17621;DHT22;8929;51.008;6.804;2022-10-23T03:35:48;14.70;99.90
17621;DHT22;8929;51.008;6.804;2022-10-23T03:38:13;14.70;99.90
17621;DHT22;8929;51.008;6.804;2022-10-23T03:40:39;14.70;99.90
17621;DHT22;8929;51.008;6.804;2022-10-23T03:43:04;14.70;99.90
17621;DHT22;8929;51.008;6.804;2022-10-23T03:45:30;14.70;99.90
17621;DHT22;8929;51.008;6.804;2022-10-23T03:47:56;14.70;99.90
17621;DHT22;8929;51.008;6.804;2022-10-23T03:50:22;14.70;99.90
17621;DHT22;8929;51.008;6.804;2022-10-23T03:52:47;14.70;99.90
17621;DHT22;8929;51.008;6.804;2022-10-23T03:55:13;14.70;99.90
17621;DHT22;8929;51.008;6.804;2022-10-23T03:57:38;14.70;99.90
17621;DHT22;8929;51.008;6.804;2022-10-23T04:00:04;14.70;99.90
17621;DHT22;8929;51.008;6.804;2022-10-23T04:02:30;14.60;99.90
17621;DHT22;8929;51.008;6.804;2022-10-23T04:04:55;14.60;99.90
17621;DHT22;8929;51.008;6.804;2022-10-23T04:07:22;14.60;99.90
17621;DHT22;8929;51.008;6.804;2022-10-23T04:09:47;14.60;99.90
17621;DHT22;8929;51.008;6.804;2022-10-23T04:12:13;14.60;99.90
17621;DHT22;8929;51.008;6.804;2022-10-23T04:14:38;14.60;99.90
17621;DHT22;8929;51.008;6.804;2022-10-23T04:17:04;14.50;99.90
17621;DHT22;8929;51.008;6.804;2022-10-23T04:19:29;14.50;99.90
17621;DHT22;8929;51.008;6.804;2022-10-23T04:21:55;14.50;99.90
17621;DHT22;8929;51.008;6.804;2022-10-23T04:24:22;14.50;99.90
17621;DHT22;8929;51.008;6.804;2022-10-23T04:26:47;14.50;99.90
17621;DHT22;8929;51.008;6.804;2022-10-23T04:29:12;14.50;99.90
17621;DHT22;8929;51.008;6.804;2022-10-23T04:31:38;14.50;99.90
17621;DHT22;8929;51.008;6.804;2022-10-23T04:34:03;14.50;99.90
17621;DHT22;8929;51.008;6.804;2022-10-23T04:36:29;14.50;99.90
17621;DHT22;8929;51.008;6.804;2022-10-23T04:38:54;14.50;99.90
17621;DHT22;8929;51.008;6.804;2022-10-23T04:41:20;14.50;99.90
17621;DHT22;8929;51.008;6.804;2022-10-23T04:43:45;14.40;99.90
17621;DHT22;8929;51.008;6.804;2022-10-23T04:46:11;14.40;99.90
17621;DHT22;8929;51.008;6.804;2022-10-23T04:48:36;14.40;99.90
17621;DHT22;8929;51.008;6.804;2022-10-23T04:51:03;14.40;99.90
17621;DHT22;8929;51.008;6.804;2022-10-23T04:53:29;14.40;99.90
17621;DHT22;8929;51.008;6.804;2022-10-23T04:55:55;14.40;99.90
17621;DHT22;8929;51.008;6.804;2022-10-23T04:58:21;14.40;99.90
17621;DHT22;8929;51.008;6.804;2022-10-23T05:00:47;14.40;99.90
17621;DHT22;8929;51.008;6.804;2022-10-23T05:03:13;14.40;99.90
17621;DHT22;8929;51.008;6.804;2022-10-23T05:05:39;14.30;99.90
17621;DHT22;8929;51.008;6.804;2022-10-23T05:08:05;14.30;99.90
17621;DHT22;8929;51.008;6.804;2022-10-23T05:10:30;14.40;99.90
17621;DHT22;8929;51.008;6.804;2022-10-23T05:12:56;14.40;99.90
17621;DHT22;8929;51.008;6.804;2022-10-23T05:15:21;14.40;99.90
17621;DHT22;8929;51.008;6.804;2022-10-23T05:17:47;14.40;99.90
17621;DHT22;8929;51.008;6.804;2022-10-23T05:20:15;14.40;99.90
17621;DHT22;8929;51.008;6.804;2022-10-23T05:22:42;14.30;99.90
17621;DHT22;8929;51.008;6.804;2022-10-23T05:25:09;14.30;99.90
17621;DHT22;8929;51.008;6.804;2022-10-23T05:27:34;14.30;99.90
17621;DHT22;8929;51.008;6.804;2022-10-23T05:30:00;14.30;99.90
17621;DHT22;8929;51.008;6.804;2022-10-23T05:32:26;14.30;99.90
17621;DHT22;8929;51.008;6.804;2022-10-23T05:34:53;14.30;99.90
17621;DHT22;8929;51.008;6.804;2022-10-23T05:37:19;14.30;99.90
17621;DHT22;8929;51.008;6.804;2022-10-23T05:39:44;14.30;99.90
17621;DHT22;8929;51.008;6.804;2022-10-23T05:42:09;14.30;99.90
17621;DHT22;8929;51.008;6.804;2022-10-23T05:44:35;14.30;99.90
17621;DHT22;8929;51.008;6.804;2022-10-23T05:47:01;14.30;99.90
17621;DHT22;8929;51.008;6.804;2022-10-23T05:49:26;14.30;99.90
17621;DHT22;8929;51.008;6.804;2022-10-23T05:51:51;14.20;99.90
17621;DHT22;8929;51.008;6.804;2022-10-23T05:54:17;14.20;99.90
17621;DHT22;8929;51.008;6.804;2022-10-23T05:56:42;14.20;99.90
17621;DHT22;8929;51.008;6.804;2022-10-23T05:59:08;14.20;99.90
17621;DHT22;8929;51.008;6.804;2022-10-23T06:01:34;14.30;99.90
17621;DHT22;8929;51.008;6.804;2022-10-23T06:04:00;14.30;99.90
17621;DHT22;8929;51.008;6.804;2022-10-23T06:06:26;14.30;99.90
17621;DHT22;8929;51.008;6.804;2022-10-23T06:08:51;14.30;99.90
17621;DHT22;8929;51.008;6.804;2022-10-23T06:11:17;14.30;99.90
17621;DHT22;8929;51.008;6.804;2022-10-23T06:13:42;14.40;99.90
17621;DHT22;8929;51.008;6.804;2022-10-23T06:16:12;14.30;99.90
17621;DHT22;8929;51.008;6.804;2022-10-23T06:18:38;14.40;99.90
17621;DHT22;8929;51.008;6.804;2022-10-23T06:21:03;14.40;99.90
17621;DHT22;8929;51.008;6.804;2022-10-23T06:23:30;14.40;99.90
17621;DHT22;8929;51.008;6.804;2022-10-23T06:25:56;14.40;99.90
17621;DHT22;8929;51.008;6.804;2022-10-23T06:28:21;14.50;99.90
17621;DHT22;8929;51.008;6.804;2022-10-23T06:30:47;14.50;99.90
17621;DHT22;8929;51.008;6.804;2022-10-23T06:33:12;14.60;99.90
17621;DHT22;8929;51.008;6.804;2022-10-23T06:35:38;14.60;99.90
17621;DHT22;8929;51.008;6.804;2022-10-23T06:38:03;14.60;99.90
17621;DHT22;8929;51.008;6.804;2022-10-23T06:40:29;14.70;99.90
17621;DHT22;8929;51.008;6.804;2022-10-23T06:42:55;14.70;99.90
17621;DHT22;8929;51.008;6.804;2022-10-23T06:45:20;14.70;99.90
17621;DHT22;8929;51.008;6.804;2022-10-23T06:47:48;14.80;99.90
17621;DHT22;8929;51.008;6.804;2022-10-23T06:50:13;14.80;99.90
17621;DHT22;8929;51.008;6.804;2022-10-23T06:52:39;14.80;99.90
17621;DHT22;8929;51.008;6.804;2022-10-23T06:55:04;14.90;99.90
17621;DHT22;8929;51.008;6.804;2022-10-23T06:57:30;15.00;99.90
17621;DHT22;8929;51.008;6.804;2022-10-23T06:59:55;15.00;99.90
17621;DHT22;8929;51.008;6.804;2022-10-23T07:02:20;15.10;99.90
17621;DHT22;8929;51.008;6.804;2022-10-23T07:04:46;15.10;99.90
17621;DHT22;8929;51.008;6.804;2022-10-23T07:07:11;15.20;99.90
17621;DHT22;8929;51.008;6.804;2022-10-23T07:09:37;15.20;99.90
17621;DHT22;8929;51.008;6.804;2022-10-23T07:12:02;15.20;99.90
17621;DHT22;8929;51.008;6.804;2022-10-23T07:14:28;15.20;99.90
17621;DHT22;8929;51.008;6.804;2022-10-23T07:16:56;15.30;99.90
17621;DHT22;8929;51.008;6.804;2022-10-23T07:19:22;15.30;99.90
17621;DHT22;8929;51.008;6.804;2022-10-23T07:21:47;15.30;99.90
17621;DHT22;8929;51.008;6.804;2022-10-23T07:24:13;15.40;99.90
17621;DHT22;8929;51.008;6.804;2022-10-23T07:26:38;15.40;99.90
17621;DHT22;8929;51.008;6.804;2022-10-23T07:29:04;15.50;99.90
17621;DHT22;8929;51.008;6.804;2022-10-23T07:31:29;15.50;99.90
17621;DHT22;8929;51.008;6.804;2022-10-23T07:33:54;15.60;99.90
17621;DHT22;8929;51.008;6.804;2022-10-23T07:36:20;15.60;99.90
17621;DHT22;8929;51.008;6.804;2022-10-23T07:38:46;15.70;99.90
17621;DHT22;8929;51.008;6.804;2022-10-23T07:41:11;15.70;99.90
17621;DHT22;8929;51.008;6.804;2022-10-23T07:43:37;15.80;99.90
17621;DHT22;8929;51.008;6.804;2022-10-23T07:46:02;15.80;99.90
17621;DHT22;8929;51.008;6.804;2022-10-23T07:48:28;15.80;99.90
17621;DHT22;8929;51.008;6.804;2022-10-23T07:51:02;15.90;99.90
17621;DHT22;8929;51.008;6.804;2022-10-23T07:53:32;15.90;99.90
17621;DHT22;8929;51.008;6.804;2022-10-23T07:55:59;15.90;99.90
17621;DHT22;8929;51.008;6.804;2022-10-23T07:58:25;15.90;99.90
17621;DHT22;8929;51.008;6.804;2022-10-23T08:01:00;16.00;99.90
17621;DHT22;8929;51.008;6.804;2022-10-23T08:03:31;16.10;99.90
17621;DHT22;8929;51.008;6.804;2022-10-23T08:05:56;16.20;99.90
17621;DHT22;8929;51.008;6.804;2022-10-23T08:08:22;16.40;99.90
17621;DHT22;8929;51.008;6.804;2022-10-23T08:10:48;16.40;99.90
17621;DHT22;8929;51.008;6.804;2022-10-23T08:13:14;16.50;99.90
17621;DHT22;8929;51.008;6.804;2022-10-23T08:15:40;16.60;99.90
17621;DHT22;8929;51.008;6.804;2022-10-23T08:18:06;16.70;99.90
17621;DHT22;8929;51.008;6.804;2022-10-23T08:20:36;16.90;99.90
17621;DHT22;8929;51.008;6.804;2022-10-23T08:23:02;17.00;99.90
17621;DHT22;8929;51.008;6.804;2022-10-23T08:25:27;17.20;99.90
17621;DHT22;8929;51.008;6.804;2022-10-23T08:27:53;17.20;99.90
17621;DHT22;8929;51.008;6.804;2022-10-23T08:30:18;17.30;99.90
17621;DHT22;8929;51.008;6.804;2022-10-23T08:32:43;17.40;99.90
17621;DHT22;8929;51.008;6.804;2022-10-23T08:35:09;17.50;99.90
17621;DHT22;8929;51.008;6.804;2022-10-23T08:37:34;17.70;99.90
17621;DHT22;8929;51.008;6.804;2022-10-23T08:40:00;17.80;99.90
17621;DHT22;8929;51.008;6.804;2022-10-23T08:42:25;17.80;99.90
17621;DHT22;8929;51.008;6.804;2022-10-23T08:44:54;17.70;99.90
17621;DHT22;8929;51.008;6.804;2022-10-23T08:47:29;17.80;99.90
17621;DHT22;8929;51.008;6.804;2022-10-23T08:49:58;17.80;99.90
17621;DHT22;8929;51.008;6.804;2022-10-23T08:52:31;17.80;99.90
17621;DHT22;8929;51.008;6.804;2022-10-23T08:55:01;17.80;99.90
17621;DHT22;8929;51.008;6.804;2022-10-23T08:57:30;17.90;99.90
17621;DHT22;8929;51.008;6.804;2022-10-23T09:00:00;18.00;99.90
17621;DHT22;8929;51.008;6.804;2022-10-23T09:02:29;18.00;99.90
17621;DHT22;8929;51.008;6.804;2022-10-23T09:04:56;18.00;99.90
17621;DHT22;8929;51.008;6.804;2022-10-23T09:07:26;18.10;99.90
17621;DHT22;8929;51.008;6.804;2022-10-23T09:10:57;18.30;99.90
17621;DHT22;8929;51.008;6.804;2022-10-23T09:12:51;18.40;99.90
17621;DHT22;8929;51.008;6.804;2022-10-23T09:15:24;18.60;99.90
17621;DHT22;8929;51.008;6.804;2022-10-23T09:17:59;18.80;99.90
17621;DHT22;8929;51.008;6.804;2022-10-23T09:20:30;18.80;99.90
17621;DHT22;8929;51.008;6.804;2022-10-23T09:22:57;19.00;99.90
17621;DHT22;8929;51.008;6.804;2022-10-23T09:25:25;19.10;99.90
17621;DHT22;8929;51.008;6.804;2022-10-23T09:27:52;19.30;99.90
17621;DHT22;8929;51.008;6.804;2022-10-23T09:30:28;19.30;99.90
17621;DHT22;8929;51.008;6.804;2022-10-23T09:32:56;19.30;99.90
17621;DHT22;8929;51.008;6.804;2022-10-23T09:35:22;19.30;99.90
17621;DHT22;8929;51.008;6.804;2022-10-23T09:37:48;19.50;99.90
17621;DHT22;8929;51.008;6.804;2022-10-23T09:40:23;19.60;99.90
17621;DHT22;8929;51.008;6.804;2022-10-23T09:42:53;19.70;99.90
17621;DHT22;8929;51.008;6.804;2022-10-23T09:45:27;19.90;99.90
17621;DHT22;8929;51.008;6.804;2022-10-23T09:50:41;20.10;99.90
17621;DHT22;8929;51.008;6.804;2022-10-23T09:53:10;20.10;99.90
17621;DHT22;8929;51.008;6.804;2022-10-23T09:55:39;19.90;99.90
17621;DHT22;8929;51.008;6.804;2022-10-23T09:58:04;19.80;99.90
17621;DHT22;8929;51.008;6.804;2022-10-23T10:00:30;19.70;99.90
17621;DHT22;8929;51.008;6.804;2022-10-23T10:05:31;19.50;99.90
17621;DHT22;8929;51.008;6.804;2022-10-23T10:07:58;19.50;99.90
17621;DHT22;8929;51.008;6.804;2022-10-23T10:10:28;19.50;99.90
17621;DHT22;8929;51.008;6.804;2022-10-23T10:12:57;19.60;99.90
17621;DHT22;8929;51.008;6.804;2022-10-23T10:15:26;19.60;99.90
17621;DHT22;8929;51.008;6.804;2022-10-23T10:18:01;19.70;99.90
17621;DHT22;8929;51.008;6.804;2022-10-23T10:23:05;19.90;99.90
17621;DHT22;8929;51.008;6.804;2022-10-23T10:25:35;20.10;99.90
17621;DHT22;8929;51.008;6.804;2022-10-23T10:33:15;20.00;99.90
17621;DHT22;8929;51.008;6.804;2022-10-23T10:35:52;19.90;99.90
17621;DHT22;8929;51.008;6.804;2022-10-23T10:40:57;20.00;99.90
17621;DHT22;8929;51.008;6.804;2022-10-23T10:48:47;19.80;99.90
17621;DHT22;8929;51.008;6.804;2022-10-23T10:51:17;19.80;99.90
17621;DHT22;8929;51.008;6.804;2022-10-23T10:56:16;19.70;99.90
17621;DHT22;8929;51.008;6.804;2022-10-23T10:58:47;19.60;99.90
17621;DHT22;8929;51.008;6.804;2022-10-23T11:01:19;19.60;99.90
17621;DHT22;8929;51.008;6.804;2022-10-23T11:06:34;19.80;99.90
17621;DHT22;8929;51.008;6.804;2022-10-23T11:09:04;19.90;99.90
17621;DHT22;8929;51.008;6.804;2022-10-23T11:11:48;19.80;99.90
17621;DHT22;8929;51.008;6.804;2022-10-23T11:14:14;19.70;99.90
17621;DHT22;8929;51.008;6.804;2022-10-23T11:16:41;19.50;99.90
17621;DHT22;8929;51.008;6.804;2022-10-23T11:36:34;18.30;99.90
17621;DHT22;8929;51.008;6.804;2022-10-23T11:39:14;18.30;99.90
17621;DHT22;8929;51.008;6.804;2022-10-23T11:41:46;18.40;99.90
17621;DHT22;8929;51.008;6.804;2022-10-23T11:52:33;21.40;99.90
17621;DHT22;8929;51.008;6.804;2022-10-23T11:55:00;22.00;99.90
17621;DHT22;8929;51.008;6.804;2022-10-23T11:57:26;22.20;99.90
17621;DHT22;8929;51.008;6.804;2022-10-23T11:59:52;22.40;99.90
17621;DHT22;8929;51.008;6.804;2022-10-23T12:04:57;22.70;99.90
17621;DHT22;8929;51.008;6.804;2022-10-23T12:07:28;22.90;99.90
17621;DHT22;8929;51.008;6.804;2022-10-23T12:09:59;23.00;99.90
17621;DHT22;8929;51.008;6.804;2022-10-23T12:12:27;23.00;99.90
17621;DHT22;8929;51.008;6.804;2022-10-23T12:14:53;22.80;99.90
17621;DHT22;8929;51.008;6.804;2022-10-23T12:22:18;22.20;99.90
17621;DHT22;8929;51.008;6.804;2022-10-23T12:29:58;22.20;99.90
17621;DHT22;8929;51.008;6.804;2022-10-23T12:34:58;22.20;99.90
17621;DHT22;8929;51.008;6.804;2022-10-23T12:39:57;22.00;99.90
17621;DHT22;8929;51.008;6.804;2022-10-23T12:42:24;21.90;99.90
17621;DHT22;8929;51.008;6.804;2022-10-23T12:45:07;21.70;99.90
17621;DHT22;8929;51.008;6.804;2022-10-23T12:47:38;21.60;99.90
17621;DHT22;8929;51.008;6.804;2022-10-23T12:50:13;21.50;99.90
17621;DHT22;8929;51.008;6.804;2022-10-23T12:52:40;21.40;99.90
17621;DHT22;8929;51.008;6.804;2022-10-23T12:55:14;21.30;99.90
17621;DHT22;8929;51.008;6.804;2022-10-23T12:57:40;21.10;99.90
17621;DHT22;8929;51.008;6.804;2022-10-23T13:00:13;20.90;99.90
17621;DHT22;8929;51.008;6.804;2022-10-23T13:02:39;20.90;99.90
17621;DHT22;8929;51.008;6.804;2022-10-23T13:05:05;20.80;99.90
17621;DHT22;8929;51.008;6.804;2022-10-23T13:07:36;20.80;99.90
17621;DHT22;8929;51.008;6.804;2022-10-23T13:10:03;20.90;99.90
17621;DHT22;8929;51.008;6.804;2022-10-23T13:12:29;20.90;99.90
17621;DHT22;8929;51.008;6.804;2022-10-23T13:15:00;20.70;99.90
17621;DHT22;8929;51.008;6.804;2022-10-23T13:20:35;20.70;99.90
17621;DHT22;8929;51.008;6.804;2022-10-23T13:23:10;20.70;99.90
17621;DHT22;8929;51.008;6.804;2022-10-23T13:25:36;20.70;99.90
17621;DHT22;8929;51.008;6.804;2022-10-23T13:28:11;20.70;99.90
17621;DHT22;8929;51.008;6.804;2022-10-23T13:30:41;20.70;99.90
17621;DHT22;8929;51.008;6.804;2022-10-23T13:35:53;20.80;99.90
17621;DHT22;8929;51.008;6.804;2022-10-23T13:38:26;20.80;99.90
17621;DHT22;8929;51.008;6.804;2022-10-23T13:40:54;20.80;99.90
17621;DHT22;8929;51.008;6.804;2022-10-23T13:43:19;20.80;99.90
17621;DHT22;8929;51.008;6.804;2022-10-23T13:45:47;20.80;99.90
17621;DHT22;8929;51.008;6.804;2022-10-23T13:48:13;20.70;99.90
17621;DHT22;8929;51.008;6.804;2022-10-23T13:50:39;20.70;99.90
17621;DHT22;8929;51.008;6.804;2022-10-23T13:53:04;20.60;99.90
17621;DHT22;8929;51.008;6.804;2022-10-23T13:55:30;20.70;99.90
17621;DHT22;8929;51.008;6.804;2022-10-23T13:57:55;20.60;99.90
17621;DHT22;8929;51.008;6.804;2022-10-23T14:00:21;20.60;99.90
17621;DHT22;8929;51.008;6.804;2022-10-23T14:02:46;20.50;99.90
17621;DHT22;8929;51.008;6.804;2022-10-23T14:05:12;20.40;99.90
17621;DHT22;8929;51.008;6.804;2022-10-23T14:07:37;20.40;99.90
17621;DHT22;8929;51.008;6.804;2022-10-23T14:10:03;20.30;99.90
17621;DHT22;8929;51.008;6.804;2022-10-23T14:12:28;20.30;99.90
17621;DHT22;8929;51.008;6.804;2022-10-23T14:14:54;20.30;99.90
17621;DHT22;8929;51.008;6.804;2022-10-23T14:17:19;20.20;99.90
17621;DHT22;8929;51.008;6.804;2022-10-23T14:19:45;20.20;99.90
17621;DHT22;8929;51.008;6.804;2022-10-23T14:22:11;20.20;99.90
17621;DHT22;8929;51.008;6.804;2022-10-23T14:24:36;20.20;99.90
17621;DHT22;8929;51.008;6.804;2022-10-23T14:27:02;20.20;99.90
17621;DHT22;8929;51.008;6.804;2022-10-23T14:29:27;20.30;99.90
17621;DHT22;8929;51.008;6.804;2022-10-23T14:31:53;20.20;99.90
17621;DHT22;8929;51.008;6.804;2022-10-23T14:34:18;20.30;99.90
17621;DHT22;8929;51.008;6.804;2022-10-23T14:36:44;20.30;99.90
17621;DHT22;8929;51.008;6.804;2022-10-23T14:39:09;20.20;99.90
17621;DHT22;8929;51.008;6.804;2022-10-23T14:41:35;20.20;99.90
17621;DHT22;8929;51.008;6.804;2022-10-23T14:44:01;20.10;99.90
17621;DHT22;8929;51.008;6.804;2022-10-23T14:46:26;20.00;99.90
17621;DHT22;8929;51.008;6.804;2022-10-23T14:48:53;19.90;99.90
17621;DHT22;8929;51.008;6.804;2022-10-23T14:51:25;19.90;99.90
17621;DHT22;8929;51.008;6.804;2022-10-23T14:53:58;19.80;99.90
17621;DHT22;8929;51.008;6.804;2022-10-23T14:56:26;19.80;99.90
17621;DHT22;8929;51.008;6.804;2022-10-23T14:58:52;19.70;99.90
17621;DHT22;8929;51.008;6.804;2022-10-23T15:01:17;19.70;99.90
17621;DHT22;8929;51.008;6.804;2022-10-23T15:03:43;19.70;99.90
17621;DHT22;8929;51.008;6.804;2022-10-23T15:06:08;19.70;99.90
17621;DHT22;8929;51.008;6.804;2022-10-23T15:08:34;19.80;99.90
17621;DHT22;8929;51.008;6.804;2022-10-23T15:11:00;19.80;99.90
17621;DHT22;8929;51.008;6.804;2022-10-23T15:13:26;19.80;99.90
17621;DHT22;8929;51.008;6.804;2022-10-23T15:16:05;19.80;99.90
17621;DHT22;8929;51.008;6.804;2022-10-23T15:18:31;19.90;99.90
17621;DHT22;8929;51.008;6.804;2022-10-23T15:20:56;19.80;99.90
17621;DHT22;8929;51.008;6.804;2022-10-23T15:23:22;19.70;99.90
17621;DHT22;8929;51.008;6.804;2022-10-23T15:25:57;19.50;99.90
17621;DHT22;8929;51.008;6.804;2022-10-23T15:28:23;19.30;99.90
17621;DHT22;8929;51.008;6.804;2022-10-23T15:30:48;19.10;99.90
17621;DHT22;8929;51.008;6.804;2022-10-23T15:33:14;19.00;99.90
17621;DHT22;8929;51.008;6.804;2022-10-23T15:35:39;18.90;99.90
17621;DHT22;8929;51.008;6.804;2022-10-23T15:38:04;18.70;99.90
17621;DHT22;8929;51.008;6.804;2022-10-23T15:40:30;18.70;99.90
17621;DHT22;8929;51.008;6.804;2022-10-23T15:42:55;18.60;99.90
17621;DHT22;8929;51.008;6.804;2022-10-23T15:45:21;18.70;99.90
17621;DHT22;8929;51.008;6.804;2022-10-23T15:47:46;18.70;99.90
17621;DHT22;8929;51.008;6.804;2022-10-23T15:50:12;18.70;99.90
17621;DHT22;8929;51.008;6.804;2022-10-23T15:52:38;18.70;99.90
17621;DHT22;8929;51.008;6.804;2022-10-23T15:55:03;18.70;99.90
17621;DHT22;8929;51.008;6.804;2022-10-23T15:57:29;18.70;99.90
17621;DHT22;8929;51.008;6.804;2022-10-23T15:59:55;18.70;99.90
17621;DHT22;8929;51.008;6.804;2022-10-23T16:02:21;18.70;99.90
17621;DHT22;8929;51.008;6.804;2022-10-23T16:04:47;18.70;99.90
17621;DHT22;8929;51.008;6.804;2022-10-23T16:07:12;18.70;99.90
17621;DHT22;8929;51.008;6.804;2022-10-23T16:09:38;18.60;99.90
17621;DHT22;8929;51.008;6.804;2022-10-23T16:12:03;18.50;99.90
17621;DHT22;8929;51.008;6.804;2022-10-23T16:14:29;18.50;99.90
17621;DHT22;8929;51.008;6.804;2022-10-23T16:16:54;18.40;99.90
17621;DHT22;8929;51.008;6.804;2022-10-23T16:19:20;18.40;99.90
17621;DHT22;8929;51.008;6.804;2022-10-23T16:21:45;18.30;99.90
17621;DHT22;8929;51.008;6.804;2022-10-23T16:24:11;18.30;99.90
17621;DHT22;8929;51.008;6.804;2022-10-23T16:26:37;18.20;99.90
17621;DHT22;8929;51.008;6.804;2022-10-23T16:29:03;18.20;99.90
17621;DHT22;8929;51.008;6.804;2022-10-23T16:31:29;18.10;99.90
17621;DHT22;8929;51.008;6.804;2022-10-23T16:33:58;18.10;99.90
17621;DHT22;8929;51.008;6.804;2022-10-23T16:36:24;18.10;99.90
17621;DHT22;8929;51.008;6.804;2022-10-23T16:38:50;18.00;99.90
17621;DHT22;8929;51.008;6.804;2022-10-23T16:41:15;18.00;99.90
17621;DHT22;8929;51.008;6.804;2022-10-23T16:43:40;17.90;99.90
17621;DHT22;8929;51.008;6.804;2022-10-23T16:46:13;17.90;99.90
17621;DHT22;8929;51.008;6.804;2022-10-23T16:48:39;17.80;99.90
17621;DHT22;8929;51.008;6.804;2022-10-23T16:51:06;17.80;99.90
17621;DHT22;8929;51.008;6.804;2022-10-23T16:53:31;17.80;99.90
17621;DHT22;8929;51.008;6.804;2022-10-23T16:55:57;17.80;99.90
17621;DHT22;8929;51.008;6.804;2022-10-23T16:58:23;17.70;99.90
17621;DHT22;8929;51.008;6.804;2022-10-23T17:00:56;17.50;99.90
17621;DHT22;8929;51.008;6.804;2022-10-23T17:03:21;17.60;99.90
17621;DHT22;8929;51.008;6.804;2022-10-23T17:05:47;17.50;99.90
17621;DHT22;8929;51.008;6.804;2022-10-23T17:08:12;17.50;99.90
17621;DHT22;8929;51.008;6.804;2022-10-23T17:10:38;17.50;99.90
17621;DHT22;8929;51.008;6.804;2022-10-23T17:13:03;17.50;99.90
17621;DHT22;8929;51.008;6.804;2022-10-23T17:15:28;17.40;99.90
17621;DHT22;8929;51.008;6.804;2022-10-23T17:17:54;17.40;99.90
17621;DHT22;8929;51.008;6.804;2022-10-23T17:20:19;17.40;99.90
17621;DHT22;8929;51.008;6.804;2022-10-23T17:22:45;17.40;99.90
17621;DHT22;8929;51.008;6.804;2022-10-23T17:25:10;17.40;99.90
17621;DHT22;8929;51.008;6.804;2022-10-23T17:27:36;17.40;99.90
17621;DHT22;8929;51.008;6.804;2022-10-23T17:30:02;17.40;99.90
17621;DHT22;8929;51.008;6.804;2022-10-23T17:32:28;17.40;99.90
17621;DHT22;8929;51.008;6.804;2022-10-23T17:34:53;17.40;99.90
17621;DHT22;8929;51.008;6.804;2022-10-23T17:37:19;17.30;99.90
17621;DHT22;8929;51.008;6.804;2022-10-23T17:39:44;17.30;99.90